Accueil
METAR-TAF:

METAR-TAF

Aéroports :

Béziers, France

Aéroport de Béziers-Cap d'Agde

latitude: 43-19N, longitude: 003-21E, altitude: 17 m

Observation

Le bulletin a été fait il y a 16 minutes, à 01:30 UTC
Vent 8 kt de ouest/nord-ouest
Température 23°C
Humidité 73%
Pression 1018 hPa
Visibilité 10 km ou plus
pas de nuages en-dessous de 1500 mètres et pas de cumulonimbus.

METAR: LFMU 240130Z AUTO 29008KT CAVOK 23/18 Q1018

Heure: 03:46 (01:46 UTC)

Prévision

Le bulletin a été fait il y a 11 heures et 46 minutes, à 14:00 UTC
Prévision valable du 23 à 15 UTC au 24 à 15 UTC
Vent 13 kt de sud/sud-ouest
Visibilité 10 km ou plus
pas de nuages en-dessous de 1500 mètres et pas de cumulonimbus.
Evoluant progressivement
du 23 à 16 UTC au 23 à 19 UTC
Vent 10 kt de nord-ouest
Evoluant progressivement
du 24 à 09 UTC au 24 à 12 UTC
Vent 12 kt de sud

TAF: LFMU 231400Z 2315/2415 20013KT CAVOK BECMG 2316/2319 32010KT BECMG 2409/2412 18012KT

Observations et prévisions météorologiques de plus de 4000 aéroports (messages METAR et TAF).

Les stations disponibles sont représentées par des disques jaunes et rouges sur la carte.

Passer la souris dessus pour voir le nom de la station.

Cliquer dessus pour voir les observations et prévisions météorologiques.

Pour changer de carte: cliquez sur les boutons verts avec une croix noire pour zoomer, sur le bouton vert avec un tiret pour effectuer un zoom arrière, ou sur les flèches vertes pour les cartes adjacentes.


METAR-TAF: